This is the latest recevied weather packets stored in our database for station/object DO1MIT-10. If no packets are shown the sender has not sent any weather packets the latest 10 day(s).
| Time | Temp. | Humidity | Pressure | Rain* | Wind** | Luminosity | Snow |
|---|---|---|---|---|---|---|---|
| 1787386042 | 13.33° C | 85% | 1016.8 hPa | - | - | - | - |
| 1787385142 | 15.56° C | 84% | 1016.3 hPa | - | - | - | - |
| 1787384242 | 15.56° C | 84% | 1016.1 hPa | - | - | - | - |
| 1787383342 | 16.67° C | 84% | 1015.8 hPa | - | - | - | - |
| 1787382442 | 17.22° C | 84% | 1015.8 hPa | - | - | - | - |
| 1787381542 | 16.67° C | 85% | 1015.6 hPa | - | - | - | - |
| 1787380642 | 15.56° C | 85% | 1015.6 hPa | - | - | - | - |
| 1787379742 | 15.56° C | 85% | 1015.4 hPa | - | - | - | - |
| 1787378841 | 15.56° C | 85% | 1015.3 hPa | - | - | - | - |
| 1787377941 | 15.56° C | 85% | 1015.3 hPa | - | - | - | - |
| 1787377041 | 15.56° C | 85% | 1015.1 hPa | - | - | - | - |
| 1787376141 | 15.56° C | 85% | 1015.1 hPa | - | - | - | - |
| 1787375241 | 15.56° C | 85% | 1014.9 hPa | - | - | - | - |
| 1787374341 | 15° C | 85% | 1014.9 hPa | - | - | - | - |
| 1787373441 | 15° C | 85% | 1014.9 hPa | - | - | - | - |
| 1787372541 | 15° C | 85% | 1014.7 hPa | - | - | - | - |
| 1787371641 | 15° C | 85% | 1014.5 hPa | - | - | - | - |
| 1787370741 | 15° C | 85% | 1014.4 hPa | - | - | - | - |
| 1787369840 | 15° C | 85% | 1014.4 hPa | - | - | - | - |
| 1787368940 | 14.44° C | 85% | 1014.2 hPa | - | - | - | - |
| 1787368040 | 14.44° C | 85% | 1014.3 hPa | - | - | - | - |
| 1787367140 | 13.89° C | 85% | 1014.2 hPa | - | - | - | - |
| 1787366240 | 13.89° C | 85% | 1014.2 hPa | - | - | - | - |
| 1787365340 | 13.89° C | 85% | 1014.1 hPa | - | - | - | - |
| 1787364440 | 14.44° C | 85% | 1014.1 hPa | - | - | - | - |
* Rain since midnight (hover to see other rain measurements)
** Current wind speed in m/s (hover to see current wind gust speed)